sensor_id;sensor_type;location;lat;lon;timestamp;P1;durP1;ratioP1;P2;durP2;ratioP2
10831;SDS011;5469;48.574;8.768;2022-10-20T00:01:57;3.70;;;2.40;;
10831;SDS011;5469;48.574;8.768;2022-10-20T00:04:33;4.37;;;2.27;;
10831;SDS011;5469;48.574;8.768;2022-10-20T00:07:10;2.40;;;2.20;;
10831;SDS011;5469;48.574;8.768;2022-10-20T00:09:45;2.50;;;2.27;;
10831;SDS011;5469;48.574;8.768;2022-10-20T00:12:20;3.43;;;2.67;;
10831;SDS011;5469;48.574;8.768;2022-10-20T00:14:55;3.37;;;2.20;;
10831;SDS011;5469;48.574;8.768;2022-10-20T00:17:30;2.33;;;2.13;;
10831;SDS011;5469;48.574;8.768;2022-10-20T00:20:06;2.73;;;2.53;;
10831;SDS011;5469;48.574;8.768;2022-10-20T00:22:43;2.70;;;2.40;;
10831;SDS011;5469;48.574;8.768;2022-10-20T00:25:19;2.83;;;2.30;;
10831;SDS011;5469;48.574;8.768;2022-10-20T00:27:54;4.27;;;2.87;;
10831;SDS011;5469;48.574;8.768;2022-10-20T00:30:29;4.70;;;2.50;;
10831;SDS011;5469;48.574;8.768;2022-10-20T00:33:05;3.03;;;2.10;;
10831;SDS011;5469;48.574;8.768;2022-10-20T00:35:40;3.17;;;2.30;;
10831;SDS011;5469;48.574;8.768;2022-10-20T00:38:20;3.00;;;2.20;;
10831;SDS011;5469;48.574;8.768;2022-10-20T00:40:55;5.93;;;2.90;;
10831;SDS011;5469;48.574;8.768;2022-10-20T00:43:40;3.07;;;2.13;;
10831;SDS011;5469;48.574;8.768;2022-10-20T00:46:18;2.73;;;2.50;;
10831;SDS011;5469;48.574;8.768;2022-10-20T00:48:56;2.73;;;2.27;;
10831;SDS011;5469;48.574;8.768;2022-10-20T00:51:33;3.03;;;2.60;;
10831;SDS011;5469;48.574;8.768;2022-10-20T00:54:11;3.57;;;2.30;;
10831;SDS011;5469;48.574;8.768;2022-10-20T00:56:49;7.97;;;3.23;;
10831;SDS011;5469;48.574;8.768;2022-10-20T00:59:27;3.27;;;2.77;;
10831;SDS011;5469;48.574;8.768;2022-10-20T01:02:06;5.03;;;2.80;;
10831;SDS011;5469;48.574;8.768;2022-10-20T01:04:43;3.97;;;2.57;;
10831;SDS011;5469;48.574;8.768;2022-10-20T01:07:19;3.43;;;2.50;;
10831;SDS011;5469;48.574;8.768;2022-10-20T01:09:57;4.00;;;2.70;;
10831;SDS011;5469;48.574;8.768;2022-10-20T01:12:35;4.17;;;2.90;;
10831;SDS011;5469;48.574;8.768;2022-10-20T01:15:20;5.93;;;2.73;;
10831;SDS011;5469;48.574;8.768;2022-10-20T01:18:03;3.60;;;2.53;;
10831;SDS011;5469;48.574;8.768;2022-10-20T01:20:50;3.47;;;2.80;;
10831;SDS011;5469;48.574;8.768;2022-10-20T01:26:53;3.33;;;2.37;;
10831;SDS011;5469;48.574;8.768;2022-10-20T01:29:47;3.13;;;2.80;;
10831;SDS011;5469;48.574;8.768;2022-10-20T01:32:31;4.30;;;2.83;;
10831;SDS011;5469;48.574;8.768;2022-10-20T01:35:10;3.27;;;2.83;;
10831;SDS011;5469;48.574;8.768;2022-10-20T01:37:54;5.20;;;2.10;;
10831;SDS011;5469;48.574;8.768;2022-10-20T01:40:40;3.87;;;2.80;;
10831;SDS011;5469;48.574;8.768;2022-10-20T01:43:22;3.97;;;2.53;;
10831;SDS011;5469;48.574;8.768;2022-10-20T01:46:01;2.93;;;2.63;;
10831;SDS011;5469;48.574;8.768;2022-10-20T01:48:39;3.47;;;3.17;;
10831;SDS011;5469;48.574;8.768;2022-10-20T01:51:14;2.97;;;2.03;;
10831;SDS011;5469;48.574;8.768;2022-10-20T01:53:50;6.30;;;4.40;;
10831;SDS011;5469;48.574;8.768;2022-10-20T01:56:26;3.40;;;2.73;;
10831;SDS011;5469;48.574;8.768;2022-10-20T02:02:12;2.67;;;2.47;;
10831;SDS011;5469;48.574;8.768;2022-10-20T02:05:01;3.50;;;2.47;;
10831;SDS011;5469;48.574;8.768;2022-10-20T02:07:51;4.73;;;3.70;;
10831;SDS011;5469;48.574;8.768;2022-10-20T02:10:31;3.83;;;3.13;;
10831;SDS011;5469;48.574;8.768;2022-10-20T02:13:14;4.13;;;2.73;;
10831;SDS011;5469;48.574;8.768;2022-10-20T02:15:52;3.17;;;2.73;;
10831;SDS011;5469;48.574;8.768;2022-10-20T02:18:33;2.13;;;1.93;;
10831;SDS011;5469;48.574;8.768;2022-10-20T02:21:12;3.17;;;2.40;;
10831;SDS011;5469;48.574;8.768;2022-10-20T02:23:47;4.97;;;3.00;;
10831;SDS011;5469;48.574;8.768;2022-10-20T02:26:24;3.77;;;3.17;;
10831;SDS011;5469;48.574;8.768;2022-10-20T02:29:02;3.53;;;2.77;;
10831;SDS011;5469;48.574;8.768;2022-10-20T02:31:44;5.33;;;3.20;;
10831;SDS011;5469;48.574;8.768;2022-10-20T02:34:23;4.40;;;2.90;;
10831;SDS011;5469;48.574;8.768;2022-10-20T02:36:59;5.17;;;2.67;;
10831;SDS011;5469;48.574;8.768;2022-10-20T02:39:34;3.20;;;2.90;;
10831;SDS011;5469;48.574;8.768;2022-10-20T02:42:09;5.63;;;3.33;;
10831;SDS011;5469;48.574;8.768;2022-10-20T02:44:46;3.37;;;2.67;;
10831;SDS011;5469;48.574;8.768;2022-10-20T02:47:21;6.30;;;3.23;;
10831;SDS011;5469;48.574;8.768;2022-10-20T02:49:57;5.07;;;3.50;;
10831;SDS011;5469;48.574;8.768;2022-10-20T02:52:33;3.60;;;3.03;;
10831;SDS011;5469;48.574;8.768;2022-10-20T02:55:09;3.67;;;2.73;;
10831;SDS011;5469;48.574;8.768;2022-10-20T02:57:44;3.20;;;2.97;;
10831;SDS011;5469;48.574;8.768;2022-10-20T03:00:19;3.47;;;2.23;;
10831;SDS011;5469;48.574;8.768;2022-10-20T03:02:55;4.87;;;2.80;;
10831;SDS011;5469;48.574;8.768;2022-10-20T03:05:32;2.70;;;2.33;;
10831;SDS011;5469;48.574;8.768;2022-10-20T03:08:15;4.37;;;2.83;;
10831;SDS011;5469;48.574;8.768;2022-10-20T03:10:50;3.47;;;2.87;;
10831;SDS011;5469;48.574;8.768;2022-10-20T03:13:25;5.07;;;3.30;;
10831;SDS011;5469;48.574;8.768;2022-10-20T03:16:00;3.97;;;2.60;;
10831;SDS011;5469;48.574;8.768;2022-10-20T03:18:35;3.40;;;2.93;;
10831;SDS011;5469;48.574;8.768;2022-10-20T03:21:12;3.10;;;2.70;;
10831;SDS011;5469;48.574;8.768;2022-10-20T03:23:47;3.63;;;2.67;;
10831;SDS011;5469;48.574;8.768;2022-10-20T03:26:26;2.87;;;2.57;;
10831;SDS011;5469;48.574;8.768;2022-10-20T03:29:02;4.37;;;2.90;;
10831;SDS011;5469;48.574;8.768;2022-10-20T03:31:37;3.30;;;2.57;;
10831;SDS011;5469;48.574;8.768;2022-10-20T03:34:12;4.27;;;2.67;;
10831;SDS011;5469;48.574;8.768;2022-10-20T03:36:49;3.70;;;2.93;;
10831;SDS011;5469;48.574;8.768;2022-10-20T03:39:25;5.10;;;3.10;;
10831;SDS011;5469;48.574;8.768;2022-10-20T03:42:00;5.47;;;3.37;;
10831;SDS011;5469;48.574;8.768;2022-10-20T03:44:35;4.60;;;2.80;;
10831;SDS011;5469;48.574;8.768;2022-10-20T03:47:10;3.27;;;2.60;;
10831;SDS011;5469;48.574;8.768;2022-10-20T03:49:45;4.80;;;3.27;;
10831;SDS011;5469;48.574;8.768;2022-10-20T03:52:21;4.43;;;2.90;;
10831;SDS011;5469;48.574;8.768;2022-10-20T03:54:56;4.50;;;3.20;;
10831;SDS011;5469;48.574;8.768;2022-10-20T03:57:32;5.17;;;3.07;;
10831;SDS011;5469;48.574;8.768;2022-10-20T04:00:08;4.17;;;3.13;;
10831;SDS011;5469;48.574;8.768;2022-10-20T04:02:44;4.53;;;2.83;;
10831;SDS011;5469;48.574;8.768;2022-10-20T04:05:21;4.30;;;3.03;;
10831;SDS011;5469;48.574;8.768;2022-10-20T04:07:58;3.20;;;2.60;;
10831;SDS011;5469;48.574;8.768;2022-10-20T04:10:34;4.63;;;2.97;;
10831;SDS011;5469;48.574;8.768;2022-10-20T04:13:11;4.67;;;2.80;;
10831;SDS011;5469;48.574;8.768;2022-10-20T04:15:46;4.00;;;2.73;;
10831;SDS011;5469;48.574;8.768;2022-10-20T04:18:21;3.87;;;2.73;;
10831;SDS011;5469;48.574;8.768;2022-10-20T04:20:56;3.57;;;2.70;;
10831;SDS011;5469;48.574;8.768;2022-10-20T04:23:33;5.47;;;3.17;;
10831;SDS011;5469;48.574;8.768;2022-10-20T04:26:08;5.23;;;2.90;;
10831;SDS011;5469;48.574;8.768;2022-10-20T04:28:45;2.87;;;2.53;;
10831;SDS011;5469;48.574;8.768;2022-10-20T04:31:20;3.87;;;2.63;;
10831;SDS011;5469;48.574;8.768;2022-10-20T04:33:55;3.70;;;2.67;;
10831;SDS011;5469;48.574;8.768;2022-10-20T04:36:30;4.30;;;2.43;;
10831;SDS011;5469;48.574;8.768;2022-10-20T04:39:07;3.30;;;2.87;;
10831;SDS011;5469;48.574;8.768;2022-10-20T04:41:42;4.43;;;2.90;;
10831;SDS011;5469;48.574;8.768;2022-10-20T04:44:17;3.40;;;2.90;;
10831;SDS011;5469;48.574;8.768;2022-10-20T04:46:52;2.53;;;2.27;;
10831;SDS011;5469;48.574;8.768;2022-10-20T04:49:28;2.73;;;2.17;;
10831;SDS011;5469;48.574;8.768;2022-10-20T04:52:04;4.90;;;2.53;;
10831;SDS011;5469;48.574;8.768;2022-10-20T04:54:41;2.37;;;2.17;;
10831;SDS011;5469;48.574;8.768;2022-10-20T04:57:16;4.73;;;2.93;;
10831;SDS011;5469;48.574;8.768;2022-10-20T04:59:51;2.90;;;2.50;;
10831;SDS011;5469;48.574;8.768;2022-10-20T05:02:25;4.23;;;2.90;;
10831;SDS011;5469;48.574;8.768;2022-10-20T05:05:01;2.93;;;2.50;;
10831;SDS011;5469;48.574;8.768;2022-10-20T05:07:36;2.93;;;2.40;;
10831;SDS011;5469;48.574;8.768;2022-10-20T05:10:12;4.87;;;2.73;;
10831;SDS011;5469;48.574;8.768;2022-10-20T05:12:49;3.67;;;2.33;;
10831;SDS011;5469;48.574;8.768;2022-10-20T05:15:24;5.17;;;2.53;;
10831;SDS011;5469;48.574;8.768;2022-10-20T05:17:59;3.70;;;2.47;;
10831;SDS011;5469;48.574;8.768;2022-10-20T05:20:37;3.83;;;2.30;;
10831;SDS011;5469;48.574;8.768;2022-10-20T05:23:12;2.90;;;2.43;;
10831;SDS011;5469;48.574;8.768;2022-10-20T05:25:48;3.90;;;2.30;;
10831;SDS011;5469;48.574;8.768;2022-10-20T05:28:24;3.00;;;2.17;;
10831;SDS011;5469;48.574;8.768;2022-10-20T05:30:59;3.03;;;2.53;;
10831;SDS011;5469;48.574;8.768;2022-10-20T05:33:37;4.47;;;2.23;;
10831;SDS011;5469;48.574;8.768;2022-10-20T05:36:16;2.73;;;2.10;;
10831;SDS011;5469;48.574;8.768;2022-10-20T05:38:54;2.97;;;2.17;;
10831;SDS011;5469;48.574;8.768;2022-10-20T05:41:31;116.27;;;38.40;;
10831;SDS011;5469;48.574;8.768;2022-10-20T05:44:09;88.60;;;32.00;;
10831;SDS011;5469;48.574;8.768;2022-10-20T05:46:45;51.03;;;24.87;;
10831;SDS011;5469;48.574;8.768;2022-10-20T05:49:20;67.97;;;23.97;;
10831;SDS011;5469;48.574;8.768;2022-10-20T05:51:55;50.87;;;20.50;;
10831;SDS011;5469;48.574;8.768;2022-10-20T05:54:30;38.50;;;17.53;;
10831;SDS011;5469;48.574;8.768;2022-10-20T05:57:07;29.07;;;11.70;;
10831;SDS011;5469;48.574;8.768;2022-10-20T05:59:43;28.83;;;11.07;;
10831;SDS011;5469;48.574;8.768;2022-10-20T06:02:20;21.63;;;9.43;;
10831;SDS011;5469;48.574;8.768;2022-10-20T06:04:55;14.23;;;8.13;;
10831;SDS011;5469;48.574;8.768;2022-10-20T06:07:30;16.23;;;6.93;;
10831;SDS011;5469;48.574;8.768;2022-10-20T06:10:05;12.87;;;5.67;;
10831;SDS011;5469;48.574;8.768;2022-10-20T06:12:46;9.83;;;5.53;;
10831;SDS011;5469;48.574;8.768;2022-10-20T06:15:21;8.73;;;4.60;;
10831;SDS011;5469;48.574;8.768;2022-10-20T06:17:56;7.50;;;4.43;;
10831;SDS011;5469;48.574;8.768;2022-10-20T06:20:32;7.53;;;3.83;;
10831;SDS011;5469;48.574;8.768;2022-10-20T06:23:07;7.43;;;4.00;;
10831;SDS011;5469;48.574;8.768;2022-10-20T06:25:42;11.10;;;4.30;;
10831;SDS011;5469;48.574;8.768;2022-10-20T06:28:18;8.03;;;3.40;;
10831;SDS011;5469;48.574;8.768;2022-10-20T06:30:55;7.53;;;4.30;;
10831;SDS011;5469;48.574;8.768;2022-10-20T06:33:31;4.83;;;3.23;;
10831;SDS011;5469;48.574;8.768;2022-10-20T06:36:06;2.77;;;2.43;;
10831;SDS011;5469;48.574;8.768;2022-10-20T06:38:42;4.23;;;3.07;;
10831;SDS011;5469;48.574;8.768;2022-10-20T06:41:18;4.50;;;2.83;;
10831;SDS011;5469;48.574;8.768;2022-10-20T06:43:55;4.80;;;2.47;;
10831;SDS011;5469;48.574;8.768;2022-10-20T06:46:32;6.33;;;4.10;;
10831;SDS011;5469;48.574;8.768;2022-10-20T06:49:11;4.73;;;2.87;;
10831;SDS011;5469;48.574;8.768;2022-10-20T06:51:47;2.80;;;2.50;;
10831;SDS011;5469;48.574;8.768;2022-10-20T06:54:23;3.87;;;2.80;;
10831;SDS011;5469;48.574;8.768;2022-10-20T06:56:58;6.73;;;2.97;;
10831;SDS011;5469;48.574;8.768;2022-10-20T06:59:34;2.70;;;2.50;;
10831;SDS011;5469;48.574;8.768;2022-10-20T07:02:10;5.07;;;2.90;;
10831;SDS011;5469;48.574;8.768;2022-10-20T07:04:48;3.03;;;2.43;;
10831;SDS011;5469;48.574;8.768;2022-10-20T07:07:23;4.37;;;2.33;;
10831;SDS011;5469;48.574;8.768;2022-10-20T07:09:58;2.90;;;2.60;;
10831;SDS011;5469;48.574;8.768;2022-10-20T07:12:33;4.77;;;2.43;;
10831;SDS011;5469;48.574;8.768;2022-10-20T07:15:09;2.57;;;2.27;;
10831;SDS011;5469;48.574;8.768;2022-10-20T07:17:44;5.20;;;2.53;;
10831;SDS011;5469;48.574;8.768;2022-10-20T07:20:20;3.70;;;2.57;;
10831;SDS011;5469;48.574;8.768;2022-10-20T07:22:55;3.67;;;2.57;;
10831;SDS011;5469;48.574;8.768;2022-10-20T07:25:30;3.07;;;2.60;;
10831;SDS011;5469;48.574;8.768;2022-10-20T07:28:05;3.83;;;2.57;;
10831;SDS011;5469;48.574;8.768;2022-10-20T07:30:42;3.57;;;2.97;;
10831;SDS011;5469;48.574;8.768;2022-10-20T07:33:18;2.70;;;2.20;;
10831;SDS011;5469;48.574;8.768;2022-10-20T07:35:53;3.37;;;2.17;;
10831;SDS011;5469;48.574;8.768;2022-10-20T07:38:28;3.33;;;2.20;;
10831;SDS011;5469;48.574;8.768;2022-10-20T07:41:03;3.03;;;2.03;;
10831;SDS011;5469;48.574;8.768;2022-10-20T07:43:39;3.83;;;2.57;;
10831;SDS011;5469;48.574;8.768;2022-10-20T07:46:17;4.87;;;2.30;;
10831;SDS011;5469;48.574;8.768;2022-10-20T07:48:53;3.27;;;2.10;;
10831;SDS011;5469;48.574;8.768;2022-10-20T07:51:28;5.27;;;2.20;;
10831;SDS011;5469;48.574;8.768;2022-10-20T07:54:05;2.57;;;2.33;;
10831;SDS011;5469;48.574;8.768;2022-10-20T07:56:42;1.80;;;1.70;;
10831;SDS011;5469;48.574;8.768;2022-10-20T07:59:18;3.07;;;2.50;;
10831;SDS011;5469;48.574;8.768;2022-10-20T08:01:56;3.27;;;2.40;;
10831;SDS011;5469;48.574;8.768;2022-10-20T08:04:31;6.80;;;3.03;;
10831;SDS011;5469;48.574;8.768;2022-10-20T08:07:07;3.63;;;2.20;;
10831;SDS011;5469;48.574;8.768;2022-10-20T08:09:43;3.17;;;2.57;;
10831;SDS011;5469;48.574;8.768;2022-10-20T08:12:18;3.67;;;2.20;;
10831;SDS011;5469;48.574;8.768;2022-10-20T08:14:53;6.23;;;2.30;;
10831;SDS011;5469;48.574;8.768;2022-10-20T08:17:29;4.53;;;2.57;;
10831;SDS011;5469;48.574;8.768;2022-10-20T08:20:04;4.67;;;3.10;;
10831;SDS011;5469;48.574;8.768;2022-10-20T08:22:41;5.40;;;3.37;;
10831;SDS011;5469;48.574;8.768;2022-10-20T08:25:19;5.80;;;2.73;;
10831;SDS011;5469;48.574;8.768;2022-10-20T08:27:55;3.23;;;2.70;;
10831;SDS011;5469;48.574;8.768;2022-10-20T08:30:30;3.63;;;2.63;;
10831;SDS011;5469;48.574;8.768;2022-10-20T08:33:07;5.67;;;2.97;;
10831;SDS011;5469;48.574;8.768;2022-10-20T08:35:42;4.13;;;2.97;;
10831;SDS011;5469;48.574;8.768;2022-10-20T08:38:17;4.93;;;3.17;;
10831;SDS011;5469;48.574;8.768;2022-10-20T08:40:52;4.17;;;3.00;;
10831;SDS011;5469;48.574;8.768;2022-10-20T08:43:28;5.30;;;3.27;;
10831;SDS011;5469;48.574;8.768;2022-10-20T08:46:05;5.17;;;2.90;;
10831;SDS011;5469;48.574;8.768;2022-10-20T08:48:44;5.37;;;3.77;;
10831;SDS011;5469;48.574;8.768;2022-10-20T08:51:21;4.77;;;3.73;;
10831;SDS011;5469;48.574;8.768;2022-10-20T08:54:00;5.40;;;3.20;;
10831;SDS011;5469;48.574;8.768;2022-10-20T08:56:37;3.87;;;3.47;;
10831;SDS011;5469;48.574;8.768;2022-10-20T08:59:20;5.40;;;3.57;;
10831;SDS011;5469;48.574;8.768;2022-10-20T09:01:58;5.33;;;3.97;;
10831;SDS011;5469;48.574;8.768;2022-10-20T09:04:37;6.07;;;3.30;;
10831;SDS011;5469;48.574;8.768;2022-10-20T09:07:20;5.17;;;3.73;;
10831;SDS011;5469;48.574;8.768;2022-10-20T09:10:00;5.23;;;3.33;;
10831;SDS011;5469;48.574;8.768;2022-10-20T09:12:46;4.40;;;3.00;;
10831;SDS011;5469;48.574;8.768;2022-10-20T09:15:22;5.97;;;3.20;;
10831;SDS011;5469;48.574;8.768;2022-10-20T09:18:00;4.93;;;3.40;;
10831;SDS011;5469;48.574;8.768;2022-10-20T09:20:42;3.77;;;3.30;;
10831;SDS011;5469;48.574;8.768;2022-10-20T09:23:21;5.50;;;3.37;;
10831;SDS011;5469;48.574;8.768;2022-10-20T09:26:00;5.17;;;3.73;;
10831;SDS011;5469;48.574;8.768;2022-10-20T09:28:35;5.23;;;3.83;;
10831;SDS011;5469;48.574;8.768;2022-10-20T09:31:19;6.20;;;3.07;;
10831;SDS011;5469;48.574;8.768;2022-10-20T09:34:04;5.40;;;3.33;;
10831;SDS011;5469;48.574;8.768;2022-10-20T09:36:54;4.60;;;3.07;;
10831;SDS011;5469;48.574;8.768;2022-10-20T09:39:36;7.53;;;3.53;;
10831;SDS011;5469;48.574;8.768;2022-10-20T09:42:15;6.10;;;4.53;;
10831;SDS011;5469;48.574;8.768;2022-10-20T09:44:56;4.57;;;3.70;;
10831;SDS011;5469;48.574;8.768;2022-10-20T09:47:33;4.50;;;3.47;;
10831;SDS011;5469;48.574;8.768;2022-10-20T09:50:16;5.23;;;3.23;;
10831;SDS011;5469;48.574;8.768;2022-10-20T09:52:59;4.17;;;3.70;;
10831;SDS011;5469;48.574;8.768;2022-10-20T09:55:38;4.87;;;3.03;;
10831;SDS011;5469;48.574;8.768;2022-10-20T09:58:22;6.13;;;3.97;;
10831;SDS011;5469;48.574;8.768;2022-10-20T10:01:00;5.53;;;3.87;;
10831;SDS011;5469;48.574;8.768;2022-10-20T10:03:38;8.63;;;3.70;;
10831;SDS011;5469;48.574;8.768;2022-10-20T10:06:19;5.63;;;3.60;;
10831;SDS011;5469;48.574;8.768;2022-10-20T10:09:02;6.20;;;3.67;;
10831;SDS011;5469;48.574;8.768;2022-10-20T10:11:57;5.57;;;3.30;;
10831;SDS011;5469;48.574;8.768;2022-10-20T10:14:35;5.27;;;3.50;;
10831;SDS011;5469;48.574;8.768;2022-10-20T10:17:27;4.53;;;3.03;;
10831;SDS011;5469;48.574;8.768;2022-10-20T10:20:06;5.53;;;3.53;;
10831;SDS011;5469;48.574;8.768;2022-10-20T10:23:06;4.10;;;3.30;;
10831;SDS011;5469;48.574;8.768;2022-10-20T10:25:50;4.47;;;2.80;;
10831;SDS011;5469;48.574;8.768;2022-10-20T10:28:27;6.43;;;3.93;;
10831;SDS011;5469;48.574;8.768;2022-10-20T10:31:07;4.90;;;3.50;;
10831;SDS011;5469;48.574;8.768;2022-10-20T10:33:51;5.23;;;3.23;;
10831;SDS011;5469;48.574;8.768;2022-10-20T10:36:29;5.43;;;3.00;;
10831;SDS011;5469;48.574;8.768;2022-10-20T10:39:05;7.20;;;3.00;;
10831;SDS011;5469;48.574;8.768;2022-10-20T10:41:50;5.93;;;3.43;;
10831;SDS011;5469;48.574;8.768;2022-10-20T10:44:35;4.40;;;3.13;;
10831;SDS011;5469;48.574;8.768;2022-10-20T10:47:25;5.77;;;3.40;;
10831;SDS011;5469;48.574;8.768;2022-10-20T10:53:14;5.30;;;3.07;;
10831;SDS011;5469;48.574;8.768;2022-10-20T10:55:57;4.23;;;3.10;;
10831;SDS011;5469;48.574;8.768;2022-10-20T10:58:58;4.20;;;2.87;;
10831;SDS011;5469;48.574;8.768;2022-10-20T11:01:41;5.53;;;3.17;;
10831;SDS011;5469;48.574;8.768;2022-10-20T11:07:31;10.40;;;3.30;;
10831;SDS011;5469;48.574;8.768;2022-10-20T11:10:16;4.07;;;3.17;;
10831;SDS011;5469;48.574;8.768;2022-10-20T11:13:10;5.57;;;3.07;;
10831;SDS011;5469;48.574;8.768;2022-10-20T11:16:02;5.17;;;2.73;;
10831;SDS011;5469;48.574;8.768;2022-10-20T11:19:00;3.93;;;2.93;;
10831;SDS011;5469;48.574;8.768;2022-10-20T11:22:02;2.97;;;2.43;;
10831;SDS011;5469;48.574;8.768;2022-10-20T11:24:48;4.20;;;2.70;;
10831;SDS011;5469;48.574;8.768;2022-10-20T11:27:28;3.00;;;2.60;;
10831;SDS011;5469;48.574;8.768;2022-10-20T11:30:11;7.33;;;2.60;;
10831;SDS011;5469;48.574;8.768;2022-10-20T11:32:52;3.30;;;2.70;;
10831;SDS011;5469;48.574;8.768;2022-10-20T11:35:34;4.00;;;2.67;;
10831;SDS011;5469;48.574;8.768;2022-10-20T11:38:17;5.37;;;3.00;;
10831;SDS011;5469;48.574;8.768;2022-10-20T11:41:19;2.63;;;2.30;;
10831;SDS011;5469;48.574;8.768;2022-10-20T11:44:16;4.00;;;2.40;;
10831;SDS011;5469;48.574;8.768;2022-10-20T11:46:59;3.07;;;2.27;;
10831;SDS011;5469;48.574;8.768;2022-10-20T11:49:39;4.23;;;2.30;;
10831;SDS011;5469;48.574;8.768;2022-10-20T11:52:23;7.23;;;2.60;;
10831;SDS011;5469;48.574;8.768;2022-10-20T11:55:42;3.97;;;2.23;;
10831;SDS011;5469;48.574;8.768;2022-10-20T11:58:28;3.50;;;2.40;;
10831;SDS011;5469;48.574;8.768;2022-10-20T12:01:26;3.87;;;2.60;;
10831;SDS011;5469;48.574;8.768;2022-10-20T12:04:14;3.30;;;2.70;;
10831;SDS011;5469;48.574;8.768;2022-10-20T12:07:12;6.20;;;2.93;;
10831;SDS011;5469;48.574;8.768;2022-10-20T12:10:25;3.33;;;2.67;;
10831;SDS011;5469;48.574;8.768;2022-10-20T12:13:07;3.30;;;2.57;;
10831;SDS011;5469;48.574;8.768;2022-10-20T12:15:54;4.73;;;2.70;;
10831;SDS011;5469;48.574;8.768;2022-10-20T12:18:30;2.53;;;2.23;;
10831;SDS011;5469;48.574;8.768;2022-10-20T12:21:07;2.73;;;2.47;;
10831;SDS011;5469;48.574;8.768;2022-10-20T12:23:54;3.43;;;2.23;;
10831;SDS011;5469;48.574;8.768;2022-10-20T12:26:35;3.50;;;2.30;;
10831;SDS011;5469;48.574;8.768;2022-10-20T12:29:58;2.40;;;2.20;;
10831;SDS011;5469;48.574;8.768;2022-10-20T12:32:34;3.10;;;2.40;;
10831;SDS011;5469;48.574;8.768;2022-10-20T12:38:38;3.50;;;2.23;;
10831;SDS011;5469;48.574;8.768;2022-10-20T12:41:24;3.17;;;2.50;;
10831;SDS011;5469;48.574;8.768;2022-10-20T12:44:04;2.90;;;2.43;;
10831;SDS011;5469;48.574;8.768;2022-10-20T12:46:50;2.50;;;2.10;;
10831;SDS011;5469;48.574;8.768;2022-10-20T12:49:30;3.13;;;2.50;;
10831;SDS011;5469;48.574;8.768;2022-10-20T12:52:14;3.30;;;2.40;;
10831;SDS011;5469;48.574;8.768;2022-10-20T12:54:53;4.00;;;2.60;;
10831;SDS011;5469;48.574;8.768;2022-10-20T12:57:36;3.10;;;2.13;;
10831;SDS011;5469;48.574;8.768;2022-10-20T13:03:39;3.07;;;2.40;;
10831;SDS011;5469;48.574;8.768;2022-10-20T13:09:17;4.57;;;2.80;;
10831;SDS011;5469;48.574;8.768;2022-10-20T13:11:56;2.80;;;2.17;;
10831;SDS011;5469;48.574;8.768;2022-10-20T13:14:42;4.13;;;2.40;;
10831;SDS011;5469;48.574;8.768;2022-10-20T13:20:24;3.77;;;2.40;;
10831;SDS011;5469;48.574;8.768;2022-10-20T13:23:12;3.23;;;2.10;;
10831;SDS011;5469;48.574;8.768;2022-10-20T13:25:50;2.90;;;2.20;;
10831;SDS011;5469;48.574;8.768;2022-10-20T13:28:29;3.67;;;2.10;;
10831;SDS011;5469;48.574;8.768;2022-10-20T13:31:09;3.03;;;2.10;;
10831;SDS011;5469;48.574;8.768;2022-10-20T13:33:55;2.30;;;2.10;;
10831;SDS011;5469;48.574;8.768;2022-10-20T13:36:48;2.90;;;1.77;;
10831;SDS011;5469;48.574;8.768;2022-10-20T13:39:36;5.47;;;2.20;;
10831;SDS011;5469;48.574;8.768;2022-10-20T13:42:21;3.47;;;2.33;;
10831;SDS011;5469;48.574;8.768;2022-10-20T13:45:09;2.50;;;1.90;;
10831;SDS011;5469;48.574;8.768;2022-10-20T13:47:54;2.70;;;2.00;;
10831;SDS011;5469;48.574;8.768;2022-10-20T13:50:37;2.07;;;1.87;;
10831;SDS011;5469;48.574;8.768;2022-10-20T13:53:17;2.63;;;2.20;;
10831;SDS011;5469;48.574;8.768;2022-10-20T13:55:58;4.27;;;1.93;;
10831;SDS011;5469;48.574;8.768;2022-10-20T13:58:37;3.40;;;2.00;;
10831;SDS011;5469;48.574;8.768;2022-10-20T14:01:14;4.17;;;2.37;;
10831;SDS011;5469;48.574;8.768;2022-10-20T14:03:56;3.63;;;1.93;;
10831;SDS011;5469;48.574;8.768;2022-10-20T14:06:33;1.97;;;1.80;;
10831;SDS011;5469;48.574;8.768;2022-10-20T14:09:14;2.73;;;1.73;;
10831;SDS011;5469;48.574;8.768;2022-10-20T14:11:52;1.93;;;1.77;;
10831;SDS011;5469;48.574;8.768;2022-10-20T14:14:32;3.20;;;2.10;;
10831;SDS011;5469;48.574;8.768;2022-10-20T14:17:16;2.30;;;2.10;;
10831;SDS011;5469;48.574;8.768;2022-10-20T14:20:15;2.70;;;2.13;;
10831;SDS011;5469;48.574;8.768;2022-10-20T14:22:53;2.33;;;1.80;;
10831;SDS011;5469;48.574;8.768;2022-10-20T14:25:31;2.37;;;2.03;;
10831;SDS011;5469;48.574;8.768;2022-10-20T14:28:10;2.30;;;2.10;;
10831;SDS011;5469;48.574;8.768;2022-10-20T14:30:52;1.80;;;1.70;;
10831;SDS011;5469;48.574;8.768;2022-10-20T14:33:27;1.77;;;1.63;;
10831;SDS011;5469;48.574;8.768;2022-10-20T14:36:13;2.50;;;1.97;;
10831;SDS011;5469;48.574;8.768;2022-10-20T14:38:53;2.50;;;2.30;;
10831;SDS011;5469;48.574;8.768;2022-10-20T14:41:32;4.17;;;2.17;;
10831;SDS011;5469;48.574;8.768;2022-10-20T14:44:13;3.70;;;2.10;;
10831;SDS011;5469;48.574;8.768;2022-10-20T14:46:54;3.73;;;2.40;;
10831;SDS011;5469;48.574;8.768;2022-10-20T14:49:33;3.70;;;2.43;;
10831;SDS011;5469;48.574;8.768;2022-10-20T14:52:21;3.77;;;2.57;;
10831;SDS011;5469;48.574;8.768;2022-10-20T14:55:24;4.20;;;2.80;;
10831;SDS011;5469;48.574;8.768;2022-10-20T14:58:20;2.70;;;2.40;;
10831;SDS011;5469;48.574;8.768;2022-10-20T15:01:21;2.73;;;2.23;;
10831;SDS011;5469;48.574;8.768;2022-10-20T15:04:03;4.60;;;2.87;;
10831;SDS011;5469;48.574;8.768;2022-10-20T15:06:46;4.27;;;2.80;;
10831;SDS011;5469;48.574;8.768;2022-10-20T15:09:24;4.77;;;3.00;;
10831;SDS011;5469;48.574;8.768;2022-10-20T15:12:05;5.93;;;3.30;;
10831;SDS011;5469;48.574;8.768;2022-10-20T15:14:46;3.97;;;2.97;;
10831;SDS011;5469;48.574;8.768;2022-10-20T15:17:32;3.97;;;2.77;;
10831;SDS011;5469;48.574;8.768;2022-10-20T15:20:34;4.57;;;3.00;;
10831;SDS011;5469;48.574;8.768;2022-10-20T15:23:20;3.27;;;2.80;;
10831;SDS011;5469;48.574;8.768;2022-10-20T15:26:02;4.50;;;2.67;;
10831;SDS011;5469;48.574;8.768;2022-10-20T15:28:43;4.40;;;2.83;;
10831;SDS011;5469;48.574;8.768;2022-10-20T15:31:22;2.90;;;2.60;;
10831;SDS011;5469;48.574;8.768;2022-10-20T15:34:00;7.40;;;3.10;;
10831;SDS011;5469;48.574;8.768;2022-10-20T15:36:35;3.53;;;2.80;;
10831;SDS011;5469;48.574;8.768;2022-10-20T15:39:10;4.17;;;2.73;;
10831;SDS011;5469;48.574;8.768;2022-10-20T15:41:54;5.20;;;2.97;;
10831;SDS011;5469;48.574;8.768;2022-10-20T15:44:30;3.17;;;2.53;;
10831;SDS011;5469;48.574;8.768;2022-10-20T15:47:06;3.43;;;2.73;;
10831;SDS011;5469;48.574;8.768;2022-10-20T15:49:42;2.73;;;2.33;;
10831;SDS011;5469;48.574;8.768;2022-10-20T15:52:23;3.23;;;2.63;;
10831;SDS011;5469;48.574;8.768;2022-10-20T15:54:58;3.27;;;2.80;;
10831;SDS011;5469;48.574;8.768;2022-10-20T15:57:35;3.67;;;2.50;;
10831;SDS011;5469;48.574;8.768;2022-10-20T16:00:12;3.30;;;2.50;;
10831;SDS011;5469;48.574;8.768;2022-10-20T16:02:48;3.27;;;2.83;;
10831;SDS011;5469;48.574;8.768;2022-10-20T16:05:24;3.10;;;2.43;;
10831;SDS011;5469;48.574;8.768;2022-10-20T16:07:58;3.33;;;2.77;;
10831;SDS011;5469;48.574;8.768;2022-10-20T16:10:32;2.97;;;2.20;;
10831;SDS011;5469;48.574;8.768;2022-10-20T16:13:07;11.13;;;3.17;;
10831;SDS011;5469;48.574;8.768;2022-10-20T16:15:41;3.27;;;2.53;;
10831;SDS011;5469;48.574;8.768;2022-10-20T16:18:14;2.73;;;2.53;;
10831;SDS011;5469;48.574;8.768;2022-10-20T16:20:47;3.77;;;2.60;;
10831;SDS011;5469;48.574;8.768;2022-10-20T16:23:21;3.67;;;2.27;;
10831;SDS011;5469;48.574;8.768;2022-10-20T16:25:54;4.10;;;2.53;;
10831;SDS011;5469;48.574;8.768;2022-10-20T16:28:28;4.50;;;2.23;;
10831;SDS011;5469;48.574;8.768;2022-10-20T16:31:05;3.13;;;2.33;;
10831;SDS011;5469;48.574;8.768;2022-10-20T16:33:40;4.33;;;2.90;;
10831;SDS011;5469;48.574;8.768;2022-10-20T16:36:14;2.93;;;2.70;;
10831;SDS011;5469;48.574;8.768;2022-10-20T16:38:52;6.63;;;3.07;;
10831;SDS011;5469;48.574;8.768;2022-10-20T16:41:27;3.43;;;3.10;;